sensor_id;sensor_type;location;lat;lon;timestamp;P1;durP1;ratioP1;P2;durP2;ratioP2
3427;SDS011;1727;42.624;23.406;2022-09-09T00:02:21;12.60;;;10.50;;
3427;SDS011;1727;42.624;23.406;2022-09-09T00:04:55;10.53;;;9.63;;
3427;SDS011;1727;42.624;23.406;2022-09-09T00:07:30;11.57;;;10.47;;
3427;SDS011;1727;42.624;23.406;2022-09-09T00:10:09;11.20;;;10.20;;
3427;SDS011;1727;42.624;23.406;2022-09-09T00:12:46;10.97;;;9.57;;
3427;SDS011;1727;42.624;23.406;2022-09-09T00:15:22;12.00;;;10.00;;
3427;SDS011;1727;42.624;23.406;2022-09-09T00:17:53;12.60;;;10.97;;
3427;SDS011;1727;42.624;23.406;2022-09-09T00:20:30;16.03;;;10.10;;
3427;SDS011;1727;42.624;23.406;2022-09-09T00:23:03;11.60;;;10.50;;
3427;SDS011;1727;42.624;23.406;2022-09-09T00:25:40;15.50;;;10.93;;
3427;SDS011;1727;42.624;23.406;2022-09-09T00:28:13;13.90;;;10.97;;
3427;SDS011;1727;42.624;23.406;2022-09-09T00:30:44;11.27;;;10.13;;
3427;SDS011;1727;42.624;23.406;2022-09-09T00:33:13;10.33;;;9.30;;
3427;SDS011;1727;42.624;23.406;2022-09-09T00:35:44;12.43;;;10.87;;
3427;SDS011;1727;42.624;23.406;2022-09-09T00:38:13;10.33;;;9.40;;
3427;SDS011;1727;42.624;23.406;2022-09-09T00:40:48;11.07;;;10.10;;
3427;SDS011;1727;42.624;23.406;2022-09-09T00:43:25;11.40;;;10.40;;
3427;SDS011;1727;42.624;23.406;2022-09-09T00:48:50;12.17;;;10.83;;
3427;SDS011;1727;42.624;23.406;2022-09-09T00:51:25;11.93;;;10.90;;
3427;SDS011;1727;42.624;23.406;2022-09-09T00:54:09;12.00;;;10.80;;
3427;SDS011;1727;42.624;23.406;2022-09-09T00:56:50;12.00;;;10.80;;
3427;SDS011;1727;42.624;23.406;2022-09-09T00:59:24;15.83;;;10.40;;
3427;SDS011;1727;42.624;23.406;2022-09-09T01:02:02;11.23;;;10.00;;
3427;SDS011;1727;42.624;23.406;2022-09-09T01:04:37;11.73;;;10.57;;
3427;SDS011;1727;42.624;23.406;2022-09-09T01:07:09;12.33;;;11.13;;
3427;SDS011;1727;42.624;23.406;2022-09-09T01:09:45;12.13;;;10.93;;
3427;SDS011;1727;42.624;23.406;2022-09-09T01:12:25;11.90;;;10.80;;
3427;SDS011;1727;42.624;23.406;2022-09-09T01:15:07;15.33;;;11.47;;
3427;SDS011;1727;42.624;23.406;2022-09-09T01:17:40;12.93;;;11.73;;
3427;SDS011;1727;42.624;23.406;2022-09-09T01:20:16;11.93;;;10.83;;
3427;SDS011;1727;42.624;23.406;2022-09-09T01:22:51;12.90;;;11.60;;
3427;SDS011;1727;42.624;23.406;2022-09-09T01:28:31;12.43;;;10.70;;
3427;SDS011;1727;42.624;23.406;2022-09-09T01:31:02;11.57;;;10.47;;
3427;SDS011;1727;42.624;23.406;2022-09-09T01:33:30;13.20;;;11.03;;
3427;SDS011;1727;42.624;23.406;2022-09-09T01:35:57;11.73;;;10.63;;
3427;SDS011;1727;42.624;23.406;2022-09-09T01:38:30;12.37;;;11.27;;
3427;SDS011;1727;42.624;23.406;2022-09-09T01:41:00;13.03;;;11.70;;
3427;SDS011;1727;42.624;23.406;2022-09-09T01:43:27;11.80;;;10.70;;
3427;SDS011;1727;42.624;23.406;2022-09-09T01:45:56;12.73;;;11.43;;
3427;SDS011;1727;42.624;23.406;2022-09-09T01:48:25;12.40;;;11.10;;
3427;SDS011;1727;42.624;23.406;2022-09-09T01:50:53;12.67;;;11.33;;
3427;SDS011;1727;42.624;23.406;2022-09-09T01:53:21;12.30;;;10.90;;
3427;SDS011;1727;42.624;23.406;2022-09-09T01:55:55;13.07;;;11.67;;
3427;SDS011;1727;42.624;23.406;2022-09-09T01:58:36;12.23;;;10.87;;
3427;SDS011;1727;42.624;23.406;2022-09-09T02:01:12;14.43;;;10.80;;
3427;SDS011;1727;42.624;23.406;2022-09-09T02:03:51;15.57;;;12.27;;
3427;SDS011;1727;42.624;23.406;2022-09-09T02:06:24;11.80;;;10.57;;
3427;SDS011;1727;42.624;23.406;2022-09-09T02:08:56;11.83;;;10.70;;
3427;SDS011;1727;42.624;23.406;2022-09-09T02:11:26;13.23;;;11.20;;
3427;SDS011;1727;42.624;23.406;2022-09-09T02:13:57;11.53;;;10.50;;
3427;SDS011;1727;42.624;23.406;2022-09-09T02:16:28;13.63;;;11.10;;
3427;SDS011;1727;42.624;23.406;2022-09-09T02:19:00;20.33;;;10.47;;
3427;SDS011;1727;42.624;23.406;2022-09-09T02:21:32;13.33;;;10.53;;
3427;SDS011;1727;42.624;23.406;2022-09-09T02:24:02;13.30;;;10.27;;
3427;SDS011;1727;42.624;23.406;2022-09-09T02:26:34;12.73;;;11.03;;
3427;SDS011;1727;42.624;23.406;2022-09-09T02:29:07;15.20;;;10.60;;
3427;SDS011;1727;42.624;23.406;2022-09-09T02:31:36;11.73;;;10.60;;
3427;SDS011;1727;42.624;23.406;2022-09-09T02:34:04;12.90;;;11.07;;
3427;SDS011;1727;42.624;23.406;2022-09-09T02:36:34;12.37;;;11.17;;
3427;SDS011;1727;42.624;23.406;2022-09-09T02:39:03;11.80;;;10.20;;
3427;SDS011;1727;42.624;23.406;2022-09-09T02:41:36;12.60;;;10.97;;
3427;SDS011;1727;42.624;23.406;2022-09-09T02:44:05;12.20;;;11.00;;
3427;SDS011;1727;42.624;23.406;2022-09-09T02:46:35;11.50;;;10.30;;
3427;SDS011;1727;42.624;23.406;2022-09-09T02:49:11;14.27;;;11.18;;
3427;SDS011;1727;42.624;23.406;2022-09-09T02:51:46;12.10;;;11.00;;
3427;SDS011;1727;42.624;23.406;2022-09-09T02:54:21;13.20;;;10.60;;
3427;SDS011;1727;42.624;23.406;2022-09-09T02:56:54;12.17;;;10.97;;
3427;SDS011;1727;42.624;23.406;2022-09-09T02:59:21;11.93;;;10.60;;
3427;SDS011;1727;42.624;23.406;2022-09-09T03:01:49;11.83;;;10.70;;
3427;SDS011;1727;42.624;23.406;2022-09-09T03:04:15;14.33;;;12.07;;
3427;SDS011;1727;42.624;23.406;2022-09-09T03:06:42;13.00;;;11.07;;
3427;SDS011;1727;42.624;23.406;2022-09-09T03:09:09;13.20;;;10.70;;
3427;SDS011;1727;42.624;23.406;2022-09-09T03:11:36;12.27;;;11.17;;
3427;SDS011;1727;42.624;23.406;2022-09-09T03:14:05;11.67;;;10.53;;
3427;SDS011;1727;42.624;23.406;2022-09-09T03:16:33;13.60;;;12.30;;
3427;SDS011;1727;42.624;23.406;2022-09-09T03:19:00;12.60;;;11.37;;
3427;SDS011;1727;42.624;23.406;2022-09-09T03:21:27;12.30;;;11.10;;
3427;SDS011;1727;42.624;23.406;2022-09-09T03:23:54;12.40;;;11.17;;
3427;SDS011;1727;42.624;23.406;2022-09-09T03:26:20;13.60;;;12.23;;
3427;SDS011;1727;42.624;23.406;2022-09-09T03:28:48;16.23;;;12.57;;
3427;SDS011;1727;42.624;23.406;2022-09-09T03:31:18;15.13;;;11.30;;
3427;SDS011;1727;42.624;23.406;2022-09-09T03:34:00;12.70;;;11.00;;
3427;SDS011;1727;42.624;23.406;2022-09-09T03:36:27;13.17;;;11.87;;
3427;SDS011;1727;42.624;23.406;2022-09-09T03:38:54;13.80;;;10.77;;
3427;SDS011;1727;42.624;23.406;2022-09-09T03:41:21;14.27;;;12.20;;
3427;SDS011;1727;42.624;23.406;2022-09-09T03:43:49;13.10;;;11.90;;
3427;SDS011;1727;42.624;23.406;2022-09-09T03:46:18;11.03;;;10.13;;
3427;SDS011;1727;42.624;23.406;2022-09-09T03:48:45;12.00;;;11.00;;
3427;SDS011;1727;42.624;23.406;2022-09-09T04:01:17;16.60;;;11.50;;
3427;SDS011;1727;42.624;23.406;2022-09-09T04:03:44;12.87;;;10.63;;
3427;SDS011;1727;42.624;23.406;2022-09-09T04:06:11;13.20;;;11.30;;
3427;SDS011;1727;42.624;23.406;2022-09-09T04:08:40;14.07;;;11.43;;
3427;SDS011;1727;42.624;23.406;2022-09-09T04:11:07;13.07;;;11.33;;
3427;SDS011;1727;42.624;23.406;2022-09-09T04:13:35;13.13;;;10.73;;
3427;SDS011;1727;42.624;23.406;2022-09-09T04:22:54;11.30;;;10.20;;
3427;SDS011;1727;42.624;23.406;2022-09-09T04:25:21;13.00;;;9.87;;
3427;SDS011;1727;42.624;23.406;2022-09-09T04:27:52;12.27;;;11.07;;
3427;SDS011;1727;42.624;23.406;2022-09-09T04:30:20;19.73;;;12.07;;
3427;SDS011;1727;42.624;23.406;2022-09-09T04:32:47;15.20;;;11.93;;
3427;SDS011;1727;42.624;23.406;2022-09-09T04:35:23;23.80;;;11.63;;
3427;SDS011;1727;42.624;23.406;2022-09-09T04:37:49;12.53;;;11.17;;
3427;SDS011;1727;42.624;23.406;2022-09-09T04:40:18;13.83;;;11.53;;
3427;SDS011;1727;42.624;23.406;2022-09-09T04:42:47;19.53;;;12.70;;
3427;SDS011;1727;42.624;23.406;2022-09-09T04:45:14;26.27;;;11.40;;
3427;SDS011;1727;42.624;23.406;2022-09-09T04:47:41;11.63;;;10.53;;
3427;SDS011;1727;42.624;23.406;2022-09-09T04:50:08;13.13;;;11.13;;
3427;SDS011;1727;42.624;23.406;2022-09-09T04:52:37;12.87;;;11.60;;
3427;SDS011;1727;42.624;23.406;2022-09-09T04:55:04;14.80;;;11.10;;
3427;SDS011;1727;42.624;23.406;2022-09-09T04:57:34;12.67;;;11.50;;
3427;SDS011;1727;42.624;23.406;2022-09-09T05:00:01;27.93;;;12.53;;
3427;SDS011;1727;42.624;23.406;2022-09-09T05:02:28;18.23;;;11.20;;
3427;SDS011;1727;42.624;23.406;2022-09-09T05:04:55;13.23;;;11.23;;
3427;SDS011;1727;42.624;23.406;2022-09-09T05:07:22;20.57;;;11.87;;
3427;SDS011;1727;42.624;23.406;2022-09-09T05:09:49;14.17;;;12.30;;
3427;SDS011;1727;42.624;23.406;2022-09-09T05:12:16;24.37;;;11.80;;
3427;SDS011;1727;42.624;23.406;2022-09-09T05:14:44;12.53;;;11.20;;
3427;SDS011;1727;42.624;23.406;2022-09-09T05:17:11;12.30;;;10.00;;
3427;SDS011;1727;42.624;23.406;2022-09-09T05:26:25;10.20;;;9.27;;
3427;SDS011;1727;42.624;23.406;2022-09-09T05:28:54;12.20;;;8.80;;
3427;SDS011;1727;42.624;23.406;2022-09-09T05:31:23;17.10;;;10.10;;
3427;SDS011;1727;42.624;23.406;2022-09-09T05:33:52;9.50;;;8.60;;
3427;SDS011;1727;42.624;23.406;2022-09-09T05:36:20;9.50;;;8.50;;
3427;SDS011;1727;42.624;23.406;2022-09-09T05:38:47;10.87;;;8.40;;
3427;SDS011;1727;42.624;23.406;2022-09-09T05:41:15;11.43;;;8.37;;
3427;SDS011;1727;42.624;23.406;2022-09-09T05:43:43;14.60;;;10.17;;
3427;SDS011;1727;42.624;23.406;2022-09-09T05:46:12;10.40;;;8.17;;
3427;SDS011;1727;42.624;23.406;2022-09-09T05:48:42;11.57;;;8.00;;
3427;SDS011;1727;42.624;23.406;2022-09-09T05:51:11;9.23;;;6.70;;
3427;SDS011;1727;42.624;23.406;2022-09-09T05:53:40;15.03;;;7.50;;
3427;SDS011;1727;42.624;23.406;2022-09-09T05:56:08;8.30;;;7.60;;
3427;SDS011;1727;42.624;23.406;2022-09-09T05:58:36;10.07;;;8.23;;
3427;SDS011;1727;42.624;23.406;2022-09-09T06:01:04;8.13;;;7.30;;
3427;SDS011;1727;42.624;23.406;2022-09-09T06:03:32;8.63;;;6.93;;
3427;SDS011;1727;42.624;23.406;2022-09-09T06:06:03;12.60;;;7.93;;
3427;SDS011;1727;42.624;23.406;2022-09-09T06:08:31;11.00;;;8.47;;
3427;SDS011;1727;42.624;23.406;2022-09-09T06:11:02;10.43;;;8.40;;
3427;SDS011;1727;42.624;23.406;2022-09-09T06:13:31;9.13;;;7.73;;
3427;SDS011;1727;42.624;23.406;2022-09-09T06:15:58;8.53;;;7.63;;
3427;SDS011;1727;42.624;23.406;2022-09-09T06:18:25;11.00;;;7.77;;
3427;SDS011;1727;42.624;23.406;2022-09-09T06:20:53;8.53;;;7.73;;
3427;SDS011;1727;42.624;23.406;2022-09-09T06:23:22;12.47;;;7.97;;
3427;SDS011;1727;42.624;23.406;2022-09-09T06:25:49;9.03;;;8.17;;
3427;SDS011;1727;42.624;23.406;2022-09-09T06:28:16;8.70;;;7.80;;
3427;SDS011;1727;42.624;23.406;2022-09-09T06:30:44;14.30;;;8.27;;
3427;SDS011;1727;42.624;23.406;2022-09-09T06:33:11;9.63;;;7.40;;
3427;SDS011;1727;42.624;23.406;2022-09-09T06:35:37;12.90;;;8.47;;
3427;SDS011;1727;42.624;23.406;2022-09-09T06:38:04;8.33;;;7.63;;
3427;SDS011;1727;42.624;23.406;2022-09-09T06:40:33;10.13;;;8.00;;
3427;SDS011;1727;42.624;23.406;2022-09-09T06:43:00;9.67;;;7.80;;
3427;SDS011;1727;42.624;23.406;2022-09-09T06:45:27;10.87;;;8.47;;
3427;SDS011;1727;42.624;23.406;2022-09-09T06:47:54;10.23;;;8.23;;
3427;SDS011;1727;42.624;23.406;2022-09-09T06:50:21;12.40;;;9.03;;
3427;SDS011;1727;42.624;23.406;2022-09-09T06:52:48;14.40;;;8.53;;
3427;SDS011;1727;42.624;23.406;2022-09-09T06:55:15;10.40;;;8.30;;
3427;SDS011;1727;42.624;23.406;2022-09-09T06:57:44;18.70;;;9.60;;
3427;SDS011;1727;42.624;23.406;2022-09-09T07:00:12;12.83;;;9.47;;
3427;SDS011;1727;42.624;23.406;2022-09-09T07:02:39;10.43;;;8.87;;
3427;SDS011;1727;42.624;23.406;2022-09-09T07:05:06;11.57;;;9.80;;
3427;SDS011;1727;42.624;23.406;2022-09-09T07:07:36;15.00;;;10.07;;
3427;SDS011;1727;42.624;23.406;2022-09-09T07:10:03;15.13;;;8.70;;
3427;SDS011;1727;42.624;23.406;2022-09-09T07:12:33;17.43;;;8.97;;
3427;SDS011;1727;42.624;23.406;2022-09-09T07:18:23;13.43;;;8.90;;
3427;SDS011;1727;42.624;23.406;2022-09-09T07:21:28;13.17;;;8.10;;
3427;SDS011;1727;42.624;23.406;2022-09-09T07:23:56;10.40;;;7.93;;
3427;SDS011;1727;42.624;23.406;2022-09-09T07:26:25;9.40;;;8.00;;
3427;SDS011;1727;42.624;23.406;2022-09-09T07:28:53;12.63;;;9.30;;
3427;SDS011;1727;42.624;23.406;2022-09-09T07:31:22;12.03;;;8.13;;
3427;SDS011;1727;42.624;23.406;2022-09-09T07:33:51;10.73;;;7.87;;
3427;SDS011;1727;42.624;23.406;2022-09-09T07:36:19;14.23;;;7.87;;
3427;SDS011;1727;42.624;23.406;2022-09-09T07:38:48;17.13;;;8.17;;
3427;SDS011;1727;42.624;23.406;2022-09-09T07:41:17;24.40;;;9.47;;
3427;SDS011;1727;42.624;23.406;2022-09-09T07:43:46;13.00;;;9.03;;
3427;SDS011;1727;42.624;23.406;2022-09-09T07:46:14;18.77;;;9.50;;
3427;SDS011;1727;42.624;23.406;2022-09-09T07:48:43;12.33;;;8.40;;
3427;SDS011;1727;42.624;23.406;2022-09-09T07:51:14;15.63;;;8.13;;
3427;SDS011;1727;42.624;23.406;2022-09-09T07:53:44;13.37;;;8.10;;
3427;SDS011;1727;42.624;23.406;2022-09-09T07:56:12;12.27;;;8.00;;
3427;SDS011;1727;42.624;23.406;2022-09-09T07:58:42;13.00;;;8.60;;
3427;SDS011;1727;42.624;23.406;2022-09-09T08:01:12;14.43;;;8.10;;
3427;SDS011;1727;42.624;23.406;2022-09-09T08:03:41;10.73;;;7.77;;
3427;SDS011;1727;42.624;23.406;2022-09-09T08:06:09;9.27;;;7.90;;
3427;SDS011;1727;42.624;23.406;2022-09-09T08:08:39;11.00;;;7.30;;
3427;SDS011;1727;42.624;23.406;2022-09-09T08:11:09;10.33;;;7.07;;
3427;SDS011;1727;42.624;23.406;2022-09-09T08:13:37;12.70;;;7.27;;
3427;SDS011;1727;42.624;23.406;2022-09-09T08:16:06;10.90;;;6.83;;
3427;SDS011;1727;42.624;23.406;2022-09-09T08:18:34;11.37;;;7.43;;
3427;SDS011;1727;42.624;23.406;2022-09-09T08:21:08;12.63;;;7.60;;
3427;SDS011;1727;42.624;23.406;2022-09-09T08:23:39;8.27;;;7.40;;
3427;SDS011;1727;42.624;23.406;2022-09-09T08:26:09;7.60;;;6.90;;
3427;SDS011;1727;42.624;23.406;2022-09-09T08:28:37;10.00;;;8.17;;
3427;SDS011;1727;42.624;23.406;2022-09-09T08:31:06;7.70;;;7.00;;
3427;SDS011;1727;42.624;23.406;2022-09-09T08:33:34;8.23;;;7.00;;
3427;SDS011;1727;42.624;23.406;2022-09-09T08:36:03;12.53;;;7.57;;
3427;SDS011;1727;42.624;23.406;2022-09-09T08:38:30;9.97;;;8.20;;
3427;SDS011;1727;42.624;23.406;2022-09-09T08:41:05;7.90;;;7.10;;
3427;SDS011;1727;42.624;23.406;2022-09-09T08:43:40;7.80;;;7.10;;
3427;SDS011;1727;42.624;23.406;2022-09-09T08:46:11;9.50;;;7.37;;
3427;SDS011;1727;42.624;23.406;2022-09-09T08:48:48;9.20;;;7.37;;
3427;SDS011;1727;42.624;23.406;2022-09-09T08:51:24;9.97;;;7.07;;
3427;SDS011;1727;42.624;23.406;2022-09-09T08:53:54;8.50;;;7.50;;
3427;SDS011;1727;42.624;23.406;2022-09-09T08:56:26;8.50;;;7.73;;
3427;SDS011;1727;42.624;23.406;2022-09-09T08:58:55;12.03;;;7.47;;
3427;SDS011;1727;42.624;23.406;2022-09-09T09:01:33;16.57;;;7.20;;
3427;SDS011;1727;42.624;23.406;2022-09-09T09:04:10;9.57;;;8.33;;
3427;SDS011;1727;42.624;23.406;2022-09-09T09:06:49;10.97;;;8.00;;
3427;SDS011;1727;42.624;23.406;2022-09-09T09:09:22;9.10;;;7.80;;
3427;SDS011;1727;42.624;23.406;2022-09-09T09:12:01;9.33;;;8.10;;
3427;SDS011;1727;42.624;23.406;2022-09-09T09:14:34;9.40;;;7.00;;
3427;SDS011;1727;42.624;23.406;2022-09-09T09:17:04;11.73;;;7.90;;
3427;SDS011;1727;42.624;23.406;2022-09-09T09:19:33;13.90;;;8.13;;
3427;SDS011;1727;42.624;23.406;2022-09-09T09:22:13;9.77;;;8.03;;
3427;SDS011;1727;42.624;23.406;2022-09-09T09:24:45;9.50;;;8.47;;
3427;SDS011;1727;42.624;23.406;2022-09-09T09:27:21;8.27;;;7.37;;
3427;SDS011;1727;42.624;23.406;2022-09-09T09:29:56;13.07;;;8.40;;
3427;SDS011;1727;42.624;23.406;2022-09-09T09:32:24;8.87;;;7.97;;
3427;SDS011;1727;42.624;23.406;2022-09-09T09:34:54;10.77;;;7.57;;
3427;SDS011;1727;42.624;23.406;2022-09-09T09:37:27;8.37;;;7.60;;
3427;SDS011;1727;42.624;23.406;2022-09-09T09:40:07;8.90;;;8.10;;
3427;SDS011;1727;42.624;23.406;2022-09-09T09:42:37;10.37;;;8.80;;
3427;SDS011;1727;42.624;23.406;2022-09-09T09:45:07;9.77;;;7.40;;
3427;SDS011;1727;42.624;23.406;2022-09-09T09:47:43;8.13;;;7.33;;
3427;SDS011;1727;42.624;23.406;2022-09-09T09:50:16;8.37;;;7.00;;
3427;SDS011;1727;42.624;23.406;2022-09-09T09:52:51;15.40;;;8.87;;
3427;SDS011;1727;42.624;23.406;2022-09-09T09:55:21;8.93;;;8.03;;
3427;SDS011;1727;42.624;23.406;2022-09-09T09:57:50;12.13;;;8.67;;
3427;SDS011;1727;42.624;23.406;2022-09-09T10:00:19;13.70;;;10.03;;
3427;SDS011;1727;42.624;23.406;2022-09-09T10:02:47;7.90;;;7.20;;
3427;SDS011;1727;42.624;23.406;2022-09-09T10:05:18;13.60;;;8.77;;
3427;SDS011;1727;42.624;23.406;2022-09-09T10:07:46;14.40;;;7.97;;
3427;SDS011;1727;42.624;23.406;2022-09-09T10:10:28;16.17;;;8.33;;
3427;SDS011;1727;42.624;23.406;2022-09-09T10:13:08;12.33;;;8.23;;
3427;SDS011;1727;42.624;23.406;2022-09-09T10:15:42;9.47;;;7.27;;
3427;SDS011;1727;42.624;23.406;2022-09-09T10:18:19;8.13;;;7.00;;
3427;SDS011;1727;42.624;23.406;2022-09-09T10:20:58;8.63;;;7.63;;
3427;SDS011;1727;42.624;23.406;2022-09-09T10:23:42;14.70;;;8.53;;
3427;SDS011;1727;42.624;23.406;2022-09-09T10:26:24;14.30;;;8.37;;
3427;SDS011;1727;42.624;23.406;2022-09-09T10:29:10;9.23;;;7.13;;
3427;SDS011;1727;42.624;23.406;2022-09-09T10:31:49;8.90;;;8.17;;
3427;SDS011;1727;42.624;23.406;2022-09-09T10:34:32;11.43;;;7.60;;
3427;SDS011;1727;42.624;23.406;2022-09-09T10:37:20;9.40;;;7.97;;
3427;SDS011;1727;42.624;23.406;2022-09-09T10:40:00;16.20;;;9.70;;
3427;SDS011;1727;42.624;23.406;2022-09-09T10:42:33;12.30;;;8.60;;
3427;SDS011;1727;42.624;23.406;2022-09-09T10:45:05;19.33;;;8.47;;
3427;SDS011;1727;42.624;23.406;2022-09-09T10:47:52;8.97;;;7.17;;
3427;SDS011;1727;42.624;23.406;2022-09-09T10:50:40;13.00;;;7.57;;
3427;SDS011;1727;42.624;23.406;2022-09-09T10:53:15;16.50;;;8.03;;
3427;SDS011;1727;42.624;23.406;2022-09-09T10:55:51;16.23;;;8.30;;
3427;SDS011;1727;42.624;23.406;2022-09-09T10:58:23;9.57;;;7.93;;
3427;SDS011;1727;42.624;23.406;2022-09-09T11:00:57;14.20;;;12.73;;
3427;SDS011;1727;42.624;23.406;2022-09-09T11:03:28;11.57;;;10.07;;
3427;SDS011;1727;42.624;23.406;2022-09-09T11:05:57;12.23;;;8.90;;
3427;SDS011;1727;42.624;23.406;2022-09-09T11:08:26;9.03;;;7.87;;
3427;SDS011;1727;42.624;23.406;2022-09-09T11:10:57;12.83;;;8.00;;
3427;SDS011;1727;42.624;23.406;2022-09-09T11:13:30;9.13;;;7.93;;
3427;SDS011;1727;42.624;23.406;2022-09-09T11:16:10;14.07;;;8.57;;
3427;SDS011;1727;42.624;23.406;2022-09-09T11:18:45;12.07;;;9.20;;
3427;SDS011;1727;42.624;23.406;2022-09-09T11:21:16;13.70;;;10.90;;
3427;SDS011;1727;42.624;23.406;2022-09-09T11:23:49;14.43;;;9.77;;
3427;SDS011;1727;42.624;23.406;2022-09-09T11:26:23;9.50;;;8.60;;
3427;SDS011;1727;42.624;23.406;2022-09-09T11:29:02;11.70;;;9.13;;
3427;SDS011;1727;42.624;23.406;2022-09-09T11:32:00;14.33;;;9.37;;
3427;SDS011;1727;42.624;23.406;2022-09-09T11:34:44;15.77;;;9.20;;
3427;SDS011;1727;42.624;23.406;2022-09-09T11:37:35;16.17;;;10.10;;
3427;SDS011;1727;42.624;23.406;2022-09-09T11:40:21;14.50;;;8.70;;
3427;SDS011;1727;42.624;23.406;2022-09-09T11:43:00;13.77;;;9.17;;
3427;SDS011;1727;42.624;23.406;2022-09-09T11:45:30;14.83;;;9.70;;
3427;SDS011;1727;42.624;23.406;2022-09-09T11:48:00;10.97;;;9.97;;
3427;SDS011;1727;42.624;23.406;2022-09-09T11:50:29;17.40;;;9.70;;
3427;SDS011;1727;42.624;23.406;2022-09-09T11:56:05;18.57;;;10.00;;
3427;SDS011;1727;42.624;23.406;2022-09-09T11:58:40;10.67;;;8.43;;
3427;SDS011;1727;42.624;23.406;2022-09-09T12:01:36;12.03;;;8.63;;
3427;SDS011;1727;42.624;23.406;2022-09-09T12:04:21;12.87;;;9.57;;
3427;SDS011;1727;42.624;23.406;2022-09-09T12:06:57;16.13;;;8.77;;
3427;SDS011;1727;42.624;23.406;2022-09-09T12:09:29;15.07;;;9.97;;
3427;SDS011;1727;42.624;23.406;2022-09-09T12:12:06;9.80;;;8.67;;
3427;SDS011;1727;42.624;23.406;2022-09-09T12:14:54;13.03;;;9.10;;
3427;SDS011;1727;42.624;23.406;2022-09-09T12:17:25;12.63;;;9.00;;
3427;SDS011;1727;42.624;23.406;2022-09-09T12:20:01;21.40;;;9.77;;
3427;SDS011;1727;42.624;23.406;2022-09-09T12:22:34;34.67;;;11.80;;
3427;SDS011;1727;42.624;23.406;2022-09-09T12:25:09;17.13;;;10.23;;
3427;SDS011;1727;42.624;23.406;2022-09-09T12:27:48;9.13;;;8.23;;
3427;SDS011;1727;42.624;23.406;2022-09-09T12:30:28;10.57;;;9.30;;
3427;SDS011;1727;42.624;23.406;2022-09-09T12:33:00;11.57;;;8.97;;
3427;SDS011;1727;42.624;23.406;2022-09-09T12:35:30;15.87;;;10.13;;
3427;SDS011;1727;42.624;23.406;2022-09-09T12:37:58;9.70;;;8.90;;
3427;SDS011;1727;42.624;23.406;2022-09-09T12:40:28;11.37;;;9.47;;
3427;SDS011;1727;42.624;23.406;2022-09-09T12:42:57;13.43;;;7.80;;
3427;SDS011;1727;42.624;23.406;2022-09-09T12:45:27;11.87;;;8.67;;
3427;SDS011;1727;42.624;23.406;2022-09-09T12:47:56;12.73;;;9.43;;
3427;SDS011;1727;42.624;23.406;2022-09-09T12:50:27;13.40;;;9.70;;
3427;SDS011;1727;42.624;23.406;2022-09-09T12:52:58;10.90;;;9.77;;
3427;SDS011;1727;42.624;23.406;2022-09-09T12:55:28;16.73;;;9.33;;
3427;SDS011;1727;42.624;23.406;2022-09-09T12:57:58;14.33;;;8.73;;
3427;SDS011;1727;42.624;23.406;2022-09-09T13:00:29;10.73;;;8.87;;
3427;SDS011;1727;42.624;23.406;2022-09-09T13:02:57;15.80;;;9.73;;
3427;SDS011;1727;42.624;23.406;2022-09-09T13:05:25;18.47;;;9.87;;
3427;SDS011;1727;42.624;23.406;2022-09-09T13:08:01;11.40;;;9.53;;
3427;SDS011;1727;42.624;23.406;2022-09-09T13:10:30;14.13;;;9.00;;
3427;SDS011;1727;42.624;23.406;2022-09-09T13:13:03;16.13;;;9.90;;
3427;SDS011;1727;42.624;23.406;2022-09-09T13:15:32;16.87;;;9.73;;
3427;SDS011;1727;42.624;23.406;2022-09-09T13:18:06;15.90;;;9.40;;
3427;SDS011;1727;42.624;23.406;2022-09-09T13:20:39;14.27;;;9.13;;
3427;SDS011;1727;42.624;23.406;2022-09-09T13:23:14;12.73;;;8.77;;
3427;SDS011;1727;42.624;23.406;2022-09-09T13:25:53;14.00;;;9.20;;
3427;SDS011;1727;42.624;23.406;2022-09-09T13:28:21;12.57;;;10.07;;
3427;SDS011;1727;42.624;23.406;2022-09-09T13:30:55;10.80;;;9.10;;
3427;SDS011;1727;42.624;23.406;2022-09-09T13:33:29;14.63;;;8.83;;
3427;SDS011;1727;42.624;23.406;2022-09-09T13:35:57;13.20;;;8.93;;
3427;SDS011;1727;42.624;23.406;2022-09-09T13:38:27;12.47;;;9.77;;
3427;SDS011;1727;42.624;23.406;2022-09-09T13:40:56;19.40;;;10.07;;
3427;SDS011;1727;42.624;23.406;2022-09-09T13:43:26;15.83;;;10.37;;
3427;SDS011;1727;42.624;23.406;2022-09-09T13:45:55;13.27;;;10.80;;
3427;SDS011;1727;42.624;23.406;2022-09-09T13:48:24;13.87;;;9.73;;
3427;SDS011;1727;42.624;23.406;2022-09-09T13:50:59;25.57;;;10.53;;
3427;SDS011;1727;42.624;23.406;2022-09-09T13:53:29;13.67;;;9.50;;
3427;SDS011;1727;42.624;23.406;2022-09-09T13:55:56;22.70;;;10.57;;
3427;SDS011;1727;42.624;23.406;2022-09-09T13:58:24;10.57;;;9.33;;
3427;SDS011;1727;42.624;23.406;2022-09-09T14:00:51;12.50;;;10.77;;
3427;SDS011;1727;42.624;23.406;2022-09-09T14:03:19;10.03;;;9.13;;
3427;SDS011;1727;42.624;23.406;2022-09-09T14:05:46;17.13;;;10.80;;
3427;SDS011;1727;42.624;23.406;2022-09-09T14:08:22;11.50;;;10.00;;
3427;SDS011;1727;42.624;23.406;2022-09-09T14:10:52;18.63;;;10.80;;
3427;SDS011;1727;42.624;23.406;2022-09-09T14:13:20;12.07;;;8.93;;
3427;SDS011;1727;42.624;23.406;2022-09-09T14:15:48;12.83;;;10.07;;
3427;SDS011;1727;42.624;23.406;2022-09-09T14:18:15;12.33;;;9.10;;
3427;SDS011;1727;42.624;23.406;2022-09-09T14:20:43;16.20;;;10.13;;
3427;SDS011;1727;42.624;23.406;2022-09-09T14:23:10;16.00;;;10.13;;
3427;SDS011;1727;42.624;23.406;2022-09-09T14:25:41;10.43;;;9.30;;
3427;SDS011;1727;42.624;23.406;2022-09-09T14:28:11;13.80;;;10.40;;
3427;SDS011;1727;42.624;23.406;2022-09-09T14:30:39;12.70;;;9.60;;
3427;SDS011;1727;42.624;23.406;2022-09-09T14:33:07;16.67;;;9.27;;
3427;SDS011;1727;42.624;23.406;2022-09-09T14:35:35;15.43;;;9.50;;
3427;SDS011;1727;42.624;23.406;2022-09-09T14:38:03;10.53;;;9.50;;
3427;SDS011;1727;42.624;23.406;2022-09-09T14:40:31;11.40;;;9.83;;
3427;SDS011;1727;42.624;23.406;2022-09-09T14:42:58;13.00;;;9.43;;
3427;SDS011;1727;42.624;23.406;2022-09-09T14:45:27;9.43;;;8.60;;
3427;SDS011;1727;42.624;23.406;2022-09-09T14:47:54;10.03;;;8.77;;
3427;SDS011;1727;42.624;23.406;2022-09-09T14:50:21;12.77;;;8.57;;
3427;SDS011;1727;42.624;23.406;2022-09-09T14:52:49;13.47;;;9.90;;
3427;SDS011;1727;42.624;23.406;2022-09-09T14:55:16;16.27;;;10.30;;
3427;SDS011;1727;42.624;23.406;2022-09-09T14:57:43;10.93;;;9.63;;
3427;SDS011;1727;42.624;23.406;2022-09-09T15:00:10;22.33;;;10.03;;
3427;SDS011;1727;42.624;23.406;2022-09-09T15:02:39;12.50;;;9.40;;
3427;SDS011;1727;42.624;23.406;2022-09-09T15:05:06;15.40;;;10.20;;
3427;SDS011;1727;42.624;23.406;2022-09-09T15:07:34;10.13;;;8.40;;
3427;SDS011;1727;42.624;23.406;2022-09-09T15:10:01;20.73;;;10.03;;
3427;SDS011;1727;42.624;23.406;2022-09-09T15:12:28;21.70;;;9.63;;
3427;SDS011;1727;42.624;23.406;2022-09-09T15:14:55;11.80;;;10.70;;
3427;SDS011;1727;42.624;23.406;2022-09-09T15:17:22;16.57;;;10.00;;
3427;SDS011;1727;42.624;23.406;2022-09-09T15:19:53;11.33;;;8.83;;
3427;SDS011;1727;42.624;23.406;2022-09-09T15:22:20;12.53;;;9.80;;
3427;SDS011;1727;42.624;23.406;2022-09-09T15:24:49;10.37;;;9.27;;
3427;SDS011;1727;42.624;23.406;2022-09-09T15:27:16;10.47;;;9.57;;
3427;SDS011;1727;42.624;23.406;2022-09-09T15:29:43;11.73;;;10.10;;
3427;SDS011;1727;42.624;23.406;2022-09-09T15:32:10;20.97;;;10.00;;
3427;SDS011;1727;42.624;23.406;2022-09-09T15:34:37;14.27;;;8.90;;
3427;SDS011;1727;42.624;23.406;2022-09-09T15:37:05;15.53;;;9.27;;
3427;SDS011;1727;42.624;23.406;2022-09-09T15:39:32;13.17;;;9.10;;
3427;SDS011;1727;42.624;23.406;2022-09-09T15:41:59;11.63;;;9.60;;
3427;SDS011;1727;42.624;23.406;2022-09-09T15:44:27;12.83;;;10.40;;
3427;SDS011;1727;42.624;23.406;2022-09-09T15:46:53;15.77;;;10.63;;